createdAt,value
2019-05-19T05:15:58.317Z,11.00
2019-05-19T05:18:47.818Z,11.00
2019-05-19T05:21:13.637Z,11.00
2019-05-19T05:23:40.137Z,11.10
2019-05-19T05:28:38.866Z,11.30
2019-05-19T05:31:09.209Z,11.50
2019-05-19T05:33:36.133Z,11.50
2019-05-19T05:36:08.331Z,11.60
2019-05-19T05:38:37.078Z,11.70
2019-05-19T05:41:12.389Z,11.80
2019-05-19T05:43:50.927Z,12.00
2019-05-19T05:46:17.546Z,12.10
2019-05-19T05:48:51.067Z,12.30
2019-05-19T05:51:19.351Z,12.40
2019-05-19T05:53:45.380Z,12.60
2019-05-19T05:56:13.629Z,12.80
2019-05-19T05:58:40.022Z,12.90
2019-05-19T06:01:08.711Z,13.10
2019-05-19T06:03:34.850Z,13.30
2019-05-19T06:06:01.641Z,13.40
2019-05-19T06:08:27.678Z,13.60
2019-05-19T06:10:59.306Z,13.80
2019-05-19T06:13:29.322Z,14.10
2019-05-19T06:15:56.733Z,14.40
2019-05-19T06:18:34.352Z,14.60
2019-05-19T06:21:00.378Z,14.80
2019-05-19T06:23:31.645Z,15.00
2019-05-19T06:25:59.639Z,15.10
2019-05-19T06:28:25.950Z,15.20
2019-05-19T06:30:52.457Z,15.40
2019-05-19T06:33:19.114Z,15.50
2019-05-19T06:35:46.096Z,15.60
2019-05-19T06:38:14.242Z,15.80
2019-05-19T06:40:40.960Z,16.00
2019-05-19T06:43:08.549Z,16.10
2019-05-19T06:45:34.618Z,16.10
2019-05-19T06:48:03.544Z,16.20
2019-05-19T06:50:31.486Z,16.30
2019-05-19T06:53:12.775Z,16.40
2019-05-19T06:55:26.685Z,16.50
2019-05-19T06:57:53.006Z,16.70
2019-05-19T07:00:20.592Z,16.70
2019-05-19T07:02:46.759Z,16.80
2019-05-19T07:05:14.621Z,16.90
2019-05-19T07:07:40.650Z,17.00
2019-05-19T07:10:07.687Z,17.10
2019-05-19T07:12:34.126Z,17.10
2019-05-19T07:15:00.567Z,17.20
2019-05-19T07:17:26.680Z,17.20
2019-05-19T07:19:54.247Z,17.30
2019-05-19T07:22:21.464Z,17.50
2019-05-19T07:24:47.967Z,17.60
2019-05-19T07:27:19.790Z,17.80
2019-05-19T07:29:54.983Z,17.90
2019-05-19T07:37:52.950Z,18.20
2019-05-19T07:43:12.905Z,18.40
2019-05-19T07:48:23.381Z,18.40
2019-05-19T07:54:06.225Z,18.60
2019-05-19T07:59:15.485Z,18.70
2019-05-19T08:04:17.310Z,18.90
2019-05-19T08:09:30.937Z,19.20
2019-05-19T08:11:57.128Z,19.40
2019-05-19T08:19:28.934Z,19.80
2019-05-19T08:21:56.901Z,19.80
2019-05-19T08:35:20.907Z,20.20
2019-05-19T08:42:57.418Z,20.30
2019-05-19T08:48:15.107Z,20.50
2019-05-19T08:50:46.881Z,20.70
2019-05-19T08:59:36.943Z,20.70
2019-05-19T09:02:02.983Z,20.80
2019-05-19T09:04:30.018Z,20.90
2019-05-19T09:12:29.312Z,21.30
2019-05-19T09:15:00.458Z,21.30
2019-05-19T09:22:36.752Z,21.30
2019-05-19T09:25:06.723Z,21.40
2019-05-19T09:27:33.953Z,21.40
2019-05-19T09:40:32.965Z,21.70
2019-05-19T09:45:47.078Z,21.80
2019-05-19T09:50:45.692Z,21.70
2019-05-19T09:55:51.413Z,22.00
2019-05-19T09:58:20.110Z,22.10
2019-05-19T10:00:50.954Z,22.10
2019-05-19T10:08:29.260Z,22.00
2019-05-19T10:13:59.038Z,22.40
2019-05-19T10:18:57.371Z,22.30
2019-05-19T10:21:23.955Z,22.10
2019-05-19T10:23:50.026Z,22.10
2019-05-19T10:26:21.719Z,22.10
2019-05-19T10:33:52.608Z,22.30
2019-05-19T10:36:28.013Z,22.30
2019-05-19T10:38:59.758Z,22.40
2019-05-19T10:44:15.562Z,22.50
2019-05-19T10:49:19.626Z,22.60
2019-05-19T10:54:30.620Z,23.00
2019-05-19T10:59:34.855Z,23.40
2019-05-19T11:04:34.637Z,23.50
2019-05-19T11:09:35.602Z,23.70
2019-05-19T11:14:34.795Z,23.60
2019-05-19T11:19:35.497Z,23.70
2019-05-19T11:24:35.201Z,24.00
2019-05-19T11:34:49.500Z,23.90
2019-05-19T11:42:40.509Z,23.70
2019-05-19T11:47:39.856Z,24.40
2019-05-19T11:52:40.129Z,24.70
2019-05-19T11:57:40.833Z,24.20
2019-05-19T12:02:40.596Z,23.60
2019-05-19T12:07:42.010Z,23.20
2019-05-19T12:10:08.438Z,23.00
2019-05-19T12:17:47.076Z,22.80
2019-05-19T12:20:13.598Z,22.80
2019-05-19T12:27:46.530Z,22.60
2019-05-19T12:38:21.444Z,22.20
2019-05-19T12:43:42.609Z,22.20
2019-05-19T12:48:43.417Z,22.00
2019-05-19T12:51:09.592Z,22.00
2019-05-19T12:58:42.481Z,22.10
2019-05-19T13:01:13.485Z,22.00
2019-05-19T13:08:47.861Z,21.80
2019-05-19T13:11:13.885Z,21.80
2019-05-19T13:18:45.957Z,21.60
2019-05-19T13:21:27.784Z,21.50
2019-05-19T13:23:56.612Z,21.50
2019-05-19T13:26:22.656Z,21.50
2019-05-19T13:33:52.736Z,21.50
2019-05-19T13:37:19.044Z,21.60
2019-05-19T13:39:49.930Z,21.70
2019-05-19T13:42:19.325Z,22.00
2019-05-19T13:45:09.229Z,22.40
2019-05-19T13:47:51.667Z,22.80
2019-05-19T13:50:18.558Z,23.20
2019-05-19T13:52:44.584Z,23.50
2019-05-19T13:57:53.952Z,23.70
2019-05-19T14:00:21.505Z,23.70
2019-05-19T14:02:49.864Z,23.60
2019-05-19T14:05:16.111Z,23.30
2019-05-19T14:07:44.283Z,23.20
2019-05-19T14:10:10.810Z,23.10
2019-05-19T14:12:36.832Z,23.10
2019-05-19T14:15:05.814Z,23.20
2019-05-19T14:17:32.042Z,23.30
2019-05-19T14:19:58.793Z,23.30
2019-05-19T14:22:27.772Z,23.30
2019-05-19T14:24:53.885Z,23.50
2019-05-19T14:27:30.231Z,23.40
2019-05-19T14:29:50.154Z,23.40
2019-05-19T14:32:16.185Z,23.60
2019-05-19T14:34:42.318Z,23.70
2019-05-19T14:37:08.874Z,24.00
2019-05-19T14:39:35.103Z,24.20
2019-05-19T14:42:04.360Z,24.20
2019-05-19T14:44:30.442Z,24.00
2019-05-19T14:46:56.521Z,23.90
2019-05-19T14:49:24.406Z,23.90
2019-05-19T14:51:51.037Z,24.10
2019-05-19T14:54:17.148Z,24.10
2019-05-19T14:56:43.273Z,23.90
2019-05-19T14:59:09.413Z,23.70
2019-05-19T15:01:35.446Z,23.70
2019-05-19T15:04:01.478Z,23.80
2019-05-19T15:06:27.585Z,23.70
2019-05-19T15:08:53.617Z,23.60
2019-05-19T15:11:20.235Z,23.50
2019-05-19T15:13:47.692Z,23.60
2019-05-19T15:16:13.730Z,23.80
2019-05-19T15:18:41.585Z,23.70
2019-05-19T15:21:07.640Z,23.90
2019-05-19T15:23:33.686Z,23.90
2019-05-19T15:25:59.857Z,23.90
2019-05-19T15:28:25.886Z,23.90
2019-05-19T15:30:52.508Z,23.90
2019-05-19T15:33:18.646Z,23.90
2019-05-19T15:35:44.682Z,24.10
2019-05-19T15:38:10.777Z,24.10
2019-05-19T15:40:36.799Z,24.00
2019-05-19T15:43:04.063Z,24.00
2019-05-19T15:45:30.945Z,24.00
2019-05-19T15:47:57.251Z,24.10
2019-05-19T15:50:23.298Z,24.10
2019-05-19T15:52:49.711Z,24.00
2019-05-19T15:55:15.746Z,23.90
2019-05-19T15:57:41.852Z,23.90
2019-05-19T16:00:09.074Z,23.70
2019-05-19T16:02:35.243Z,23.70
2019-05-19T16:05:01.846Z,23.70
2019-05-19T16:07:28.133Z,23.80
2019-05-19T16:09:54.319Z,23.40
2019-05-19T16:12:20.366Z,23.10
2019-05-19T16:14:59.907Z,22.90
2019-05-19T16:17:26.135Z,22.80
2019-05-19T16:40:02.083Z,22.90
2019-05-19T16:42:35.143Z,22.80
2019-05-19T16:45:01.333Z,22.70
2019-05-19T16:47:27.607Z,22.90
2019-05-19T16:49:53.819Z,22.90
2019-05-19T16:52:19.886Z,22.90
2019-05-19T16:54:47.925Z,22.90
2019-05-19T16:57:14.056Z,22.80
2019-05-19T16:59:40.107Z,22.70
2019-05-19T17:02:06.174Z,22.60
2019-05-19T17:04:32.337Z,22.60
2019-05-19T17:06:58.503Z,22.40
2019-05-19T17:09:24.648Z,22.30
2019-05-19T17:11:50.913Z,22.20
2019-05-19T17:14:16.951Z,22.00
2019-05-19T17:16:43.138Z,21.90
2019-05-19T17:19:09.307Z,21.70
2019-05-19T17:21:35.431Z,21.60
2019-05-19T17:24:01.513Z,21.60
2019-05-19T17:26:27.768Z,21.60
2019-05-19T17:29:00.531Z,21.40
2019-05-19T17:31:21.863Z,21.50
2019-05-19T17:33:48.002Z,21.40
2019-05-19T17:36:14.209Z,21.30
2019-05-19T17:38:40.297Z,21.20
2019-05-19T17:41:06.567Z,21.10
2019-05-19T17:43:32.638Z,21.00
2019-05-19T17:45:59.137Z,21.00
2019-05-19T17:48:27.058Z,20.90
2019-05-19T17:50:53.292Z,20.70
2019-05-19T17:53:19.857Z,20.60
2019-05-19T17:55:47.071Z,20.30
2019-05-19T17:58:13.327Z,20.10
2019-05-19T18:00:40.482Z,20.00
2019-05-19T18:03:06.642Z,19.80
2019-05-19T18:05:33.340Z,19.60
2019-05-19T18:07:59.618Z,19.60
2019-05-19T18:10:25.814Z,19.50
2019-05-19T18:12:51.872Z,19.40
2019-05-19T18:15:18.049Z,19.30
2019-05-19T18:17:44.094Z,19.20
2019-05-19T18:20:22.966Z,19.10
2019-05-19T18:22:38.171Z,19.00
2019-05-19T18:25:04.531Z,19.00
2019-05-19T18:27:30.842Z,18.90
2019-05-19T18:29:56.988Z,18.90
2019-05-19T18:32:23.233Z,18.90
2019-05-19T18:34:49.279Z,18.80
2019-05-19T18:37:15.440Z,18.70
2019-05-19T18:39:41.630Z,18.60
2019-05-19T18:42:07.682Z,18.50
2019-05-19T18:44:33.932Z,18.40
2019-05-19T18:46:59.982Z,18.40
2019-05-19T18:49:26.175Z,18.30
2019-05-19T18:51:52.263Z,18.20
2019-05-19T18:54:18.522Z,18.10
2019-05-19T18:56:44.638Z,18.00
2019-05-19T18:59:10.711Z,18.00
2019-05-19T19:01:37.000Z,18.00
2019-05-19T19:04:03.362Z,18.00
2019-05-19T19:06:30.693Z,18.00
2019-05-19T19:08:57.923Z,18.00
2019-05-19T19:11:24.215Z,18.00
2019-05-19T19:13:50.309Z,17.90
2019-05-19T19:16:16.455Z,17.90
2019-05-19T19:18:42.651Z,17.90
2019-05-19T19:21:08.756Z,17.80
2019-05-19T19:23:34.894Z,17.60
2019-05-19T19:26:01.122Z,17.60
2019-05-19T19:28:27.252Z,17.50
2019-05-19T19:30:53.415Z,17.50
2019-05-19T19:33:19.640Z,17.40
2019-05-19T19:35:45.773Z,17.40
2019-05-19T19:38:12.017Z,17.40
2019-05-19T19:40:38.284Z,17.40
2019-05-19T19:43:04.474Z,17.20
2019-05-19T19:45:30.619Z,17.10
2019-05-19T19:47:56.769Z,17.00
2019-05-19T19:50:23.098Z,16.90
2019-05-19T19:52:49.386Z,16.80
2019-05-19T19:55:15.523Z,16.80
2019-05-19T19:57:41.677Z,16.80
2019-05-19T20:00:17.965Z,16.80
2019-05-19T20:02:36.282Z,16.70
2019-05-19T20:05:03.436Z,16.70
2019-05-19T20:07:29.637Z,16.60
2019-05-19T20:09:55.890Z,16.40
2019-05-19T20:12:21.945Z,16.40
2019-05-19T20:14:48.142Z,16.40
2019-05-19T20:17:14.199Z,16.40
2019-05-19T20:19:40.398Z,16.20
2019-05-19T20:22:06.465Z,16.00
2019-05-19T20:24:32.745Z,16.00
2019-05-19T20:26:58.875Z,16.00
2019-05-19T20:29:24.956Z,16.00
2019-05-19T20:31:51.148Z,15.90
2019-05-19T20:34:17.354Z,16.00
2019-05-19T20:36:43.508Z,15.80
2019-05-19T20:39:09.675Z,15.80
2019-05-19T20:41:35.763Z,15.70
2019-05-19T20:44:02.576Z,15.70
2019-05-19T20:46:28.801Z,15.70
2019-05-19T20:48:55.053Z,15.70
2019-05-19T20:51:21.325Z,15.70
2019-05-19T20:53:47.589Z,15.70
2019-05-19T20:56:13.718Z,15.70
2019-05-19T20:58:39.840Z,15.70
2019-05-19T21:01:05.980Z,15.70
2019-05-19T21:03:32.272Z,15.60
2019-05-19T21:05:58.427Z,15.50
2019-05-19T21:08:24.546Z,15.30
2019-05-19T21:10:50.679Z,15.20
2019-05-19T21:13:16.907Z,15.30
2019-05-19T21:15:42.959Z,15.20
2019-05-19T21:18:09.379Z,15.30
2019-05-19T21:20:35.557Z,15.30
2019-05-19T21:23:01.742Z,15.30
2019-05-19T21:25:28.055Z,15.10
2019-05-19T21:27:54.140Z,15.10
2019-05-19T21:30:20.451Z,15.20
2019-05-19T21:32:46.597Z,15.30
2019-05-19T21:35:13.868Z,15.30
2019-05-19T21:37:40.047Z,15.30
2019-05-19T21:40:06.942Z,15.30
2019-05-19T21:42:33.107Z,15.30
